Decoded Metar for KAVX (AVALON in CA, USA) (IATA:AVX) | Meteo·Mobile Aviation Weather
aviador You're here:

KAVX Decoded Metar

AVALON in CA, USA
Report Time2019-01-19 01:51:00
UTC Time2019-01-19 02:21:37
Flight Rules vfr VFR
Wind060° at 06 kt
W.Decomp.*RWY 04: 6.0 kt HW 0.6 kt RCW
W.Rank060° ranks 19
Current wind is above 060° avg. (5.4)
Visibility9999 m
Phenomena:N/A
Clouds:N/A
Expected CloudBase > 1,600 ft AGL from Temp-Dew spread
CeilingNone
Temp13°C (ISA +1)
Dew Point09°C (77% RH)
AAT10.6°C
QNH1024 hPa
Density Alt1,506 ft
Elevation1,581 ft
Report Wrong Elevation
Raw Report
KAVX 190151Z AUTO 06006KT 10SM CLR 13/09 A3025 RMK AO2 SLP243
T01280094 $=

Extra information for KAVX:More info

Metar Taf Metar & Taf Last 4 Metars F.Rules Stats Wind Profile Meteogram Temp Stats Airport Information Weather charts Add Link Nearby VenuesMetar ALERT Operation Metar Decoded Social comments

AIRNAV info for KAVX